sensor_id;sensor_type;location;lat;lon;timestamp;pressure;altitude;pressure_sealevel;temperature;humidity
7774;BME280;3931;42.260;23.116;2023-03-16T00:02:19;94460.22;;;7.97;100.00
7774;BME280;3931;42.260;23.116;2023-03-16T00:04:45;94464.41;;;8.57;100.00
7774;BME280;3931;42.260;23.116;2023-03-16T00:07:13;94484.75;;;8.17;100.00
7774;BME280;3931;42.260;23.116;2023-03-16T00:09:39;94460.91;;;8.78;100.00
7774;BME280;3931;42.260;23.116;2023-03-16T00:12:08;94503.75;;;8.24;100.00
7774;BME280;3931;42.260;23.116;2023-03-16T00:14:40;94444.38;;;7.88;100.00
7774;BME280;3931;42.260;23.116;2023-03-16T00:17:06;94433.19;;;7.83;100.00
7774;BME280;3931;42.260;23.116;2023-03-16T00:19:33;94424.00;;;7.39;100.00
7774;BME280;3931;42.260;23.116;2023-03-16T00:21:59;94419.56;;;8.01;100.00
7774;BME280;3931;42.260;23.116;2023-03-16T00:24:25;94529.31;;;8.71;100.00
7774;BME280;3931;42.260;23.116;2023-03-16T00:26:51;94508.13;;;7.99;100.00
7774;BME280;3931;42.260;23.116;2023-03-16T00:29:19;94509.78;;;8.09;100.00
7774;BME280;3931;42.260;23.116;2023-03-16T00:31:47;94508.66;;;8.07;100.00
7774;BME280;3931;42.260;23.116;2023-03-16T00:34:13;94518.53;;;8.17;100.00
7774;BME280;3931;42.260;23.116;2023-03-16T00:36:40;94512.59;;;8.31;100.00
7774;BME280;3931;42.260;23.116;2023-03-16T00:39:07;94518.00;;;8.22;100.00
7774;BME280;3931;42.260;23.116;2023-03-16T00:41:35;94558.25;;;8.32;100.00
7774;BME280;3931;42.260;23.116;2023-03-16T00:44:02;94538.50;;;8.21;100.00
7774;BME280;3931;42.260;23.116;2023-03-16T00:46:28;94556.13;;;8.36;100.00
7774;BME280;3931;42.260;23.116;2023-03-16T00:48:54;94569.38;;;7.91;100.00
7774;BME280;3931;42.260;23.116;2023-03-16T00:51:20;94536.94;;;8.20;100.00
7774;BME280;3931;42.260;23.116;2023-03-16T00:53:48;94554.63;;;8.10;100.00
7774;BME280;3931;42.260;23.116;2023-03-16T00:56:15;94574.44;;;8.05;100.00
7774;BME280;3931;42.260;23.116;2023-03-16T00:58:41;94581.13;;;8.42;100.00
7774;BME280;3931;42.260;23.116;2023-03-16T01:01:10;94594.72;;;7.61;100.00
7774;BME280;3931;42.260;23.116;2023-03-16T01:03:38;94573.56;;;7.58;100.00
7774;BME280;3931;42.260;23.116;2023-03-16T01:06:05;94549.44;;;7.36;100.00
7774;BME280;3931;42.260;23.116;2023-03-16T01:08:31;94596.03;;;8.66;100.00
7774;BME280;3931;42.260;23.116;2023-03-16T01:11:02;94606.94;;;8.23;100.00
7774;BME280;3931;42.260;23.116;2023-03-16T01:13:28;94603.50;;;8.06;100.00
7774;BME280;3931;42.260;23.116;2023-03-16T01:15:54;94625.75;;;8.49;100.00
7774;BME280;3931;42.260;23.116;2023-03-16T01:18:20;94608.25;;;8.43;100.00
7774;BME280;3931;42.260;23.116;2023-03-16T01:20:47;94582.50;;;7.49;100.00
7774;BME280;3931;42.260;23.116;2023-03-16T01:23:15;94583.25;;;8.13;100.00
7774;BME280;3931;42.260;23.116;2023-03-16T01:25:41;94596.50;;;8.30;100.00
7774;BME280;3931;42.260;23.116;2023-03-16T01:28:08;94549.41;;;7.11;100.00
7774;BME280;3931;42.260;23.116;2023-03-16T01:30:34;94517.53;;;7.26;100.00
7774;BME280;3931;42.260;23.116;2023-03-16T01:33:01;94488.03;;;7.14;100.00
7774;BME280;3931;42.260;23.116;2023-03-16T01:35:27;94482.00;;;7.45;100.00
7774;BME280;3931;42.260;23.116;2023-03-16T01:37:54;94503.66;;;7.55;100.00
7774;BME280;3931;42.260;23.116;2023-03-16T01:40:20;94521.38;;;7.29;100.00
7774;BME280;3931;42.260;23.116;2023-03-16T01:42:47;94507.34;;;6.86;100.00
7774;BME280;3931;42.260;23.116;2023-03-16T01:48:18;94440.41;;;7.05;100.00
7774;BME280;3931;42.260;23.116;2023-03-16T01:50:46;94456.78;;;6.96;100.00
7774;BME280;3931;42.260;23.116;2023-03-16T01:53:12;94475.13;;;6.74;100.00
7774;BME280;3931;42.260;23.116;2023-03-16T01:55:39;94515.50;;;6.89;100.00
7774;BME280;3931;42.260;23.116;2023-03-16T01:58:06;94552.44;;;7.80;100.00
7774;BME280;3931;42.260;23.116;2023-03-16T02:00:32;94583.06;;;7.94;100.00
7774;BME280;3931;42.260;23.116;2023-03-16T02:03:05;94602.19;;;7.73;100.00
7774;BME280;3931;42.260;23.116;2023-03-16T02:05:37;94603.41;;;8.22;100.00
7774;BME280;3931;42.260;23.116;2023-03-16T02:08:07;94619.84;;;8.26;100.00
7774;BME280;3931;42.260;23.116;2023-03-16T02:10:34;94643.19;;;8.08;100.00
7774;BME280;3931;42.260;23.116;2023-03-16T02:13:02;94631.63;;;8.26;100.00
7774;BME280;3931;42.260;23.116;2023-03-16T02:15:29;94632.63;;;8.32;100.00
7774;BME280;3931;42.260;23.116;2023-03-16T02:17:55;94647.47;;;8.94;100.00
7774;BME280;3931;42.260;23.116;2023-03-16T02:20:32;94689.25;;;9.05;100.00
7774;BME280;3931;42.260;23.116;2023-03-16T02:23:06;94692.63;;;8.75;100.00
7774;BME280;3931;42.260;23.116;2023-03-16T02:25:38;94686.34;;;8.87;100.00
7774;BME280;3931;42.260;23.116;2023-03-16T02:28:14;94684.22;;;8.91;100.00
7774;BME280;3931;42.260;23.116;2023-03-16T02:30:43;94662.50;;;7.13;100.00
7774;BME280;3931;42.260;23.116;2023-03-16T02:33:10;94558.66;;;7.05;100.00
7774;BME280;3931;42.260;23.116;2023-03-16T02:35:36;94490.78;;;7.02;100.00
7774;BME280;3931;42.260;23.116;2023-03-16T02:38:02;94550.88;;;7.41;100.00
7774;BME280;3931;42.260;23.116;2023-03-16T02:40:30;94582.00;;;6.84;100.00
7774;BME280;3931;42.260;23.116;2023-03-16T02:43:00;94554.53;;;7.38;100.00
7774;BME280;3931;42.260;23.116;2023-03-16T02:45:31;94545.34;;;6.75;100.00
7774;BME280;3931;42.260;23.116;2023-03-16T02:48:00;94527.25;;;6.48;100.00
7774;BME280;3931;42.260;23.116;2023-03-16T02:50:28;94508.47;;;6.47;100.00
7774;BME280;3931;42.260;23.116;2023-03-16T02:52:54;94526.72;;;6.95;100.00
7774;BME280;3931;42.260;23.116;2023-03-16T02:55:20;94531.66;;;6.87;100.00
7774;BME280;3931;42.260;23.116;2023-03-16T02:57:46;94549.03;;;6.55;100.00
7774;BME280;3931;42.260;23.116;2023-03-16T03:00:13;94529.03;;;6.55;100.00
7774;BME280;3931;42.260;23.116;2023-03-16T03:02:42;94544.72;;;6.83;100.00
7774;BME280;3931;42.260;23.116;2023-03-16T03:05:09;94580.66;;;6.76;100.00
7774;BME280;3931;42.260;23.116;2023-03-16T03:07:36;94608.97;;;7.30;100.00
7774;BME280;3931;42.260;23.116;2023-03-16T03:10:03;94637.69;;;6.72;100.00
7774;BME280;3931;42.260;23.116;2023-03-16T03:12:30;94630.34;;;6.53;100.00
7774;BME280;3931;42.260;23.116;2023-03-16T03:14:56;94631.97;;;6.67;100.00
7774;BME280;3931;42.260;23.116;2023-03-16T03:17:23;94631.66;;;7.06;100.00
7774;BME280;3931;42.260;23.116;2023-03-16T03:19:54;94620.38;;;6.43;100.00
7774;BME280;3931;42.260;23.116;2023-03-16T03:22:21;94581.41;;;6.48;100.00
7774;BME280;3931;42.260;23.116;2023-03-16T03:24:47;94566.00;;;6.38;100.00
7774;BME280;3931;42.260;23.116;2023-03-16T03:27:13;94536.28;;;6.33;100.00
7774;BME280;3931;42.260;23.116;2023-03-16T03:29:39;94515.19;;;6.30;100.00
7774;BME280;3931;42.260;23.116;2023-03-16T03:32:06;94520.94;;;6.35;100.00
7774;BME280;3931;42.260;23.116;2023-03-16T03:34:33;94514.03;;;6.43;100.00
7774;BME280;3931;42.260;23.116;2023-03-16T03:36:59;94564.31;;;8.02;100.00
7774;BME280;3931;42.260;23.116;2023-03-16T03:39:26;94696.22;;;7.30;100.00
7774;BME280;3931;42.260;23.116;2023-03-16T03:41:52;94630.47;;;7.07;100.00
7774;BME280;3931;42.260;23.116;2023-03-16T03:44:19;94588.91;;;6.76;100.00
7774;BME280;3931;42.260;23.116;2023-03-16T03:46:45;94524.41;;;6.07;100.00
7774;BME280;3931;42.260;23.116;2023-03-16T03:49:11;94592.41;;;7.72;100.00
7774;BME280;3931;42.260;23.116;2023-03-16T03:51:37;94682.94;;;7.82;100.00
7774;BME280;3931;42.260;23.116;2023-03-16T03:54:03;94706.47;;;7.58;100.00
7774;BME280;3931;42.260;23.116;2023-03-16T03:56:30;94736.97;;;7.35;100.00
7774;BME280;3931;42.260;23.116;2023-03-16T03:58:56;94748.44;;;7.46;100.00
7774;BME280;3931;42.260;23.116;2023-03-16T04:01:22;94760.72;;;7.29;100.00
7774;BME280;3931;42.260;23.116;2023-03-16T04:03:48;94767.22;;;7.64;100.00
7774;BME280;3931;42.260;23.116;2023-03-16T04:06:14;94792.63;;;7.84;100.00
7774;BME280;3931;42.260;23.116;2023-03-16T04:08:40;94809.88;;;7.72;100.00
7774;BME280;3931;42.260;23.116;2023-03-16T04:11:06;94824.31;;;7.47;100.00
7774;BME280;3931;42.260;23.116;2023-03-16T04:13:33;94837.78;;;7.86;100.00
7774;BME280;3931;42.260;23.116;2023-03-16T04:16:00;94812.25;;;7.41;100.00
7774;BME280;3931;42.260;23.116;2023-03-16T04:18:28;94820.09;;;7.43;100.00
7774;BME280;3931;42.260;23.116;2023-03-16T04:20:54;94820.50;;;7.57;100.00
7774;BME280;3931;42.260;23.116;2023-03-16T04:23:20;94814.88;;;7.00;100.00
7774;BME280;3931;42.260;23.116;2023-03-16T04:25:46;94804.41;;;7.27;100.00
7774;BME280;3931;42.260;23.116;2023-03-16T04:28:12;94808.09;;;7.20;100.00
7774;BME280;3931;42.260;23.116;2023-03-16T04:30:43;94795.31;;;7.14;100.00
7774;BME280;3931;42.260;23.116;2023-03-16T04:33:09;94800.34;;;7.15;100.00
7774;BME280;3931;42.260;23.116;2023-03-16T04:35:35;94797.09;;;7.20;100.00
7774;BME280;3931;42.260;23.116;2023-03-16T04:38:01;94793.66;;;7.00;100.00
7774;BME280;3931;42.260;23.116;2023-03-16T04:40:27;94816.13;;;7.44;100.00
7774;BME280;3931;42.260;23.116;2023-03-16T04:42:54;94829.47;;;7.45;100.00
7774;BME280;3931;42.260;23.116;2023-03-16T04:45:20;94814.34;;;7.37;100.00
7774;BME280;3931;42.260;23.116;2023-03-16T04:47:47;94847.06;;;7.64;100.00
7774;BME280;3931;42.260;23.116;2023-03-16T04:50:14;94847.31;;;7.69;100.00
7774;BME280;3931;42.260;23.116;2023-03-16T04:52:40;94839.13;;;7.66;100.00
7774;BME280;3931;42.260;23.116;2023-03-16T04:55:06;94862.88;;;8.04;100.00
7774;BME280;3931;42.260;23.116;2023-03-16T04:57:32;94875.47;;;7.45;100.00
7774;BME280;3931;42.260;23.116;2023-03-16T04:59:59;94867.72;;;7.56;100.00
7774;BME280;3931;42.260;23.116;2023-03-16T05:02:25;94872.50;;;7.68;100.00
7774;BME280;3931;42.260;23.116;2023-03-16T05:04:52;94878.06;;;7.52;100.00
7774;BME280;3931;42.260;23.116;2023-03-16T05:07:19;94881.31;;;7.47;100.00
7774;BME280;3931;42.260;23.116;2023-03-16T05:09:45;94888.34;;;7.64;100.00
7774;BME280;3931;42.260;23.116;2023-03-16T05:12:11;94888.63;;;7.53;100.00
7774;BME280;3931;42.260;23.116;2023-03-16T05:14:37;94916.41;;;7.59;100.00
7774;BME280;3931;42.260;23.116;2023-03-16T05:17:03;94917.88;;;7.47;100.00
7774;BME280;3931;42.260;23.116;2023-03-16T05:19:30;94917.09;;;7.30;100.00
7774;BME280;3931;42.260;23.116;2023-03-16T05:21:56;94924.22;;;7.76;100.00
7774;BME280;3931;42.260;23.116;2023-03-16T05:24:23;94935.47;;;7.82;97.28
7774;BME280;3931;42.260;23.116;2023-03-16T05:26:49;94930.56;;;7.41;98.26
7774;BME280;3931;42.260;23.116;2023-03-16T05:29:15;94941.41;;;7.32;96.72
7774;BME280;3931;42.260;23.116;2023-03-16T05:31:41;94944.16;;;7.80;96.30
7774;BME280;3931;42.260;23.116;2023-03-16T05:34:07;94956.91;;;7.58;94.97
7774;BME280;3931;42.260;23.116;2023-03-16T05:36:33;94964.28;;;7.61;93.16
7774;BME280;3931;42.260;23.116;2023-03-16T05:39:01;94966.53;;;7.50;92.76
7774;BME280;3931;42.260;23.116;2023-03-16T05:41:27;94953.78;;;7.72;94.72
7774;BME280;3931;42.260;23.116;2023-03-16T05:43:53;94972.53;;;7.93;90.91
7774;BME280;3931;42.260;23.116;2023-03-16T05:46:19;94969.13;;;6.89;91.30
7774;BME280;3931;42.260;23.116;2023-03-16T05:48:45;94941.31;;;6.48;100.00
7774;BME280;3931;42.260;23.116;2023-03-16T05:51:11;94932.03;;;6.22;100.00
7774;BME280;3931;42.260;23.116;2023-03-16T05:53:38;94938.28;;;6.42;100.00
7774;BME280;3931;42.260;23.116;2023-03-16T05:56:06;94943.56;;;6.53;100.00
7774;BME280;3931;42.260;23.116;2023-03-16T05:58:32;94949.53;;;6.48;100.00
7774;BME280;3931;42.260;23.116;2023-03-16T06:00:58;94939.00;;;6.27;100.00
7774;BME280;3931;42.260;23.116;2023-03-16T06:03:26;94916.81;;;6.18;100.00
7774;BME280;3931;42.260;23.116;2023-03-16T06:05:52;94933.06;;;6.48;100.00
7774;BME280;3931;42.260;23.116;2023-03-16T06:08:18;94933.50;;;6.27;100.00
7774;BME280;3931;42.260;23.116;2023-03-16T06:10:45;94959.41;;;6.65;100.00
7774;BME280;3931;42.260;23.116;2023-03-16T06:13:12;94962.66;;;6.40;100.00
7774;BME280;3931;42.260;23.116;2023-03-16T06:15:38;94953.13;;;6.25;100.00
7774;BME280;3931;42.260;23.116;2023-03-16T06:18:05;94956.78;;;6.38;100.00
7774;BME280;3931;42.260;23.116;2023-03-16T06:20:31;94938.44;;;6.16;100.00
7774;BME280;3931;42.260;23.116;2023-03-16T06:22:57;94946.66;;;6.35;100.00
7774;BME280;3931;42.260;23.116;2023-03-16T06:25:23;94966.25;;;7.28;100.00
7774;BME280;3931;42.260;23.116;2023-03-16T06:27:49;94978.94;;;6.31;100.00
7774;BME280;3931;42.260;23.116;2023-03-16T06:30:16;94977.34;;;6.70;100.00
7774;BME280;3931;42.260;23.116;2023-03-16T06:32:42;94976.59;;;6.49;100.00
7774;BME280;3931;42.260;23.116;2023-03-16T06:35:09;94974.63;;;6.50;100.00
7774;BME280;3931;42.260;23.116;2023-03-16T06:37:36;94974.13;;;6.55;100.00
7774;BME280;3931;42.260;23.116;2023-03-16T06:40:03;94995.50;;;6.67;100.00
7774;BME280;3931;42.260;23.116;2023-03-16T06:42:29;95018.22;;;6.68;97.58
7774;BME280;3931;42.260;23.116;2023-03-16T06:44:55;95010.22;;;6.96;97.28
7774;BME280;3931;42.260;23.116;2023-03-16T06:47:21;95015.56;;;6.44;98.90
7774;BME280;3931;42.260;23.116;2023-03-16T06:49:47;95020.56;;;6.49;98.86
7774;BME280;3931;42.260;23.116;2023-03-16T06:52:16;95022.13;;;6.50;99.02
7774;BME280;3931;42.260;23.116;2023-03-16T06:54:42;95020.38;;;6.60;98.30
7774;BME280;3931;42.260;23.116;2023-03-16T06:57:08;95013.84;;;6.31;100.00
7774;BME280;3931;42.260;23.116;2023-03-16T06:59:34;95019.69;;;6.33;100.00
7774;BME280;3931;42.260;23.116;2023-03-16T07:02:00;95018.03;;;6.78;98.97
7774;BME280;3931;42.260;23.116;2023-03-16T07:04:27;95017.97;;;6.62;98.33
7774;BME280;3931;42.260;23.116;2023-03-16T07:06:53;95033.81;;;6.94;95.33
7774;BME280;3931;42.260;23.116;2023-03-16T07:09:19;95037.97;;;6.82;98.06
7774;BME280;3931;42.260;23.116;2023-03-16T07:11:46;95047.06;;;6.79;95.06
7774;BME280;3931;42.260;23.116;2023-03-16T07:14:12;95057.66;;;7.00;92.92
7774;BME280;3931;42.260;23.116;2023-03-16T07:16:38;95056.38;;;7.05;94.43
7774;BME280;3931;42.260;23.116;2023-03-16T07:19:04;95054.81;;;7.04;93.94
7774;BME280;3931;42.260;23.116;2023-03-16T07:21:31;95057.75;;;7.32;93.62
7774;BME280;3931;42.260;23.116;2023-03-16T07:24:03;95072.88;;;7.05;89.35
7774;BME280;3931;42.260;23.116;2023-03-16T07:26:30;95068.72;;;6.77;91.69
7774;BME280;3931;42.260;23.116;2023-03-16T07:28:57;95066.94;;;7.06;92.21
7774;BME280;3931;42.260;23.116;2023-03-16T07:31:23;95072.31;;;6.94;91.72
7774;BME280;3931;42.260;23.116;2023-03-16T07:33:49;95078.28;;;7.08;91.52
7774;BME280;3931;42.260;23.116;2023-03-16T07:36:15;95072.44;;;6.87;93.65
7774;BME280;3931;42.260;23.116;2023-03-16T07:38:42;95079.91;;;7.06;94.80
7774;BME280;3931;42.260;23.116;2023-03-16T07:41:08;95088.59;;;6.65;92.99
7774;BME280;3931;42.260;23.116;2023-03-16T07:43:34;95090.25;;;6.79;92.42
7774;BME280;3931;42.260;23.116;2023-03-16T07:46:00;95089.22;;;6.92;94.05
7774;BME280;3931;42.260;23.116;2023-03-16T07:48:26;95085.41;;;6.86;94.05
7774;BME280;3931;42.260;23.116;2023-03-16T07:50:52;95082.44;;;6.77;96.94
7774;BME280;3931;42.260;23.116;2023-03-16T07:53:18;95087.03;;;6.84;97.25
7774;BME280;3931;42.260;23.116;2023-03-16T07:55:45;95089.47;;;7.37;93.15
7774;BME280;3931;42.260;23.116;2023-03-16T07:58:11;95112.91;;;7.06;90.46
7774;BME280;3931;42.260;23.116;2023-03-16T08:00:38;95108.81;;;6.94;92.48
7774;BME280;3931;42.260;23.116;2023-03-16T08:03:04;95104.38;;;7.20;90.93
7774;BME280;3931;42.260;23.116;2023-03-16T08:05:30;95106.34;;;7.19;90.49
7774;BME280;3931;42.260;23.116;2023-03-16T08:07:57;95104.97;;;6.92;92.83
7774;BME280;3931;42.260;23.116;2023-03-16T08:10:23;95104.00;;;6.79;91.66
7774;BME280;3931;42.260;23.116;2023-03-16T08:12:50;95104.44;;;6.77;91.51
7774;BME280;3931;42.260;23.116;2023-03-16T08:15:16;95105.56;;;6.80;93.09
7774;BME280;3931;42.260;23.116;2023-03-16T08:17:42;95103.31;;;6.75;94.53
7774;BME280;3931;42.260;23.116;2023-03-16T08:20:09;95107.19;;;6.97;93.65
7774;BME280;3931;42.260;23.116;2023-03-16T08:22:39;95113.00;;;7.02;91.84
7774;BME280;3931;42.260;23.116;2023-03-16T08:25:06;95114.25;;;7.17;91.38
7774;BME280;3931;42.260;23.116;2023-03-16T08:27:35;95122.34;;;6.85;90.98
7774;BME280;3931;42.260;23.116;2023-03-16T08:30:03;95114.25;;;7.17;90.95
7774;BME280;3931;42.260;23.116;2023-03-16T08:32:31;95124.78;;;7.22;91.67
7774;BME280;3931;42.260;23.116;2023-03-16T08:34:57;95123.78;;;7.13;92.10
7774;BME280;3931;42.260;23.116;2023-03-16T08:37:24;95124.56;;;7.13;91.40
7774;BME280;3931;42.260;23.116;2023-03-16T08:39:51;95116.09;;;7.04;94.48
7774;BME280;3931;42.260;23.116;2023-03-16T08:42:19;95104.09;;;6.95;95.60
7774;BME280;3931;42.260;23.116;2023-03-16T08:44:45;95103.47;;;6.87;94.58
7774;BME280;3931;42.260;23.116;2023-03-16T08:47:13;95109.72;;;7.47;95.52
7774;BME280;3931;42.260;23.116;2023-03-16T08:49:39;95121.75;;;6.74;93.32
7774;BME280;3931;42.260;23.116;2023-03-16T08:52:06;95116.44;;;6.67;95.03
7774;BME280;3931;42.260;23.116;2023-03-16T08:54:34;95121.25;;;6.83;95.16
7774;BME280;3931;42.260;23.116;2023-03-16T08:57:00;95112.78;;;6.93;96.08
7774;BME280;3931;42.260;23.116;2023-03-16T08:59:27;95115.97;;;7.67;93.79
7774;BME280;3931;42.260;23.116;2023-03-16T09:01:53;95128.34;;;7.39;93.23
7774;BME280;3931;42.260;23.116;2023-03-16T09:04:20;95131.69;;;6.91;92.55
7774;BME280;3931;42.260;23.116;2023-03-16T09:06:47;95117.22;;;6.87;94.61
7774;BME280;3931;42.260;23.116;2023-03-16T09:09:15;95117.63;;;7.05;96.11
7774;BME280;3931;42.260;23.116;2023-03-16T09:11:42;95114.72;;;6.73;95.00
7774;BME280;3931;42.260;23.116;2023-03-16T09:14:08;95111.53;;;6.55;95.31
7774;BME280;3931;42.260;23.116;2023-03-16T09:16:35;95113.84;;;6.56;94.69
7774;BME280;3931;42.260;23.116;2023-03-16T09:19:03;95141.19;;;7.06;90.43
7774;BME280;3931;42.260;23.116;2023-03-16T09:21:30;95150.81;;;7.18;87.81
7774;BME280;3931;42.260;23.116;2023-03-16T09:23:56;95163.91;;;7.30;86.99
7774;BME280;3931;42.260;23.116;2023-03-16T09:26:23;95155.09;;;6.99;86.50
7774;BME280;3931;42.260;23.116;2023-03-16T09:28:49;95150.06;;;6.94;89.20
7774;BME280;3931;42.260;23.116;2023-03-16T09:31:16;95146.63;;;7.10;88.32
7774;BME280;3931;42.260;23.116;2023-03-16T09:33:43;95149.78;;;6.89;88.83
7774;BME280;3931;42.260;23.116;2023-03-16T09:36:09;95152.34;;;7.19;87.55
7774;BME280;3931;42.260;23.116;2023-03-16T09:38:36;95155.59;;;6.71;88.25
7774;BME280;3931;42.260;23.116;2023-03-16T09:41:07;95154.25;;;7.42;88.63
7774;BME280;3931;42.260;23.116;2023-03-16T09:43:46;95169.50;;;7.26;85.57
7774;BME280;3931;42.260;23.116;2023-03-16T09:46:23;95171.25;;;7.17;86.07
7774;BME280;3931;42.260;23.116;2023-03-16T09:48:51;95161.44;;;7.55;88.07
7774;BME280;3931;42.260;23.116;2023-03-16T09:51:22;95164.25;;;7.12;87.47
7774;BME280;3931;42.260;23.116;2023-03-16T09:53:57;95159.28;;;7.27;88.39
7774;BME280;3931;42.260;23.116;2023-03-16T09:56:29;95167.94;;;7.25;88.03
7774;BME280;3931;42.260;23.116;2023-03-16T09:58:59;95171.41;;;7.29;86.82
7774;BME280;3931;42.260;23.116;2023-03-16T10:01:33;95162.38;;;7.29;88.86
7774;BME280;3931;42.260;23.116;2023-03-16T10:04:10;95173.38;;;7.09;87.12
7774;BME280;3931;42.260;23.116;2023-03-16T10:06:45;95169.41;;;7.10;88.05
7774;BME280;3931;42.260;23.116;2023-03-16T10:09:25;95179.34;;;7.44;85.43
7774;BME280;3931;42.260;23.116;2023-03-16T10:11:55;95172.03;;;7.17;85.50
7774;BME280;3931;42.260;23.116;2023-03-16T10:14:24;95174.63;;;7.44;86.25
7774;BME280;3931;42.260;23.116;2023-03-16T10:16:56;95174.28;;;7.62;85.11
7774;BME280;3931;42.260;23.116;2023-03-16T10:19:32;95177.81;;;7.62;83.54
7774;BME280;3931;42.260;23.116;2023-03-16T10:22:01;95175.97;;;7.56;83.79
7774;BME280;3931;42.260;23.116;2023-03-16T10:24:40;95180.19;;;7.80;82.46
7774;BME280;3931;42.260;23.116;2023-03-16T10:27:17;95190.50;;;8.12;79.41
7774;BME280;3931;42.260;23.116;2023-03-16T10:29:46;95184.69;;;7.90;80.37
7774;BME280;3931;42.260;23.116;2023-03-16T10:32:14;95182.97;;;7.60;79.62
7774;BME280;3931;42.260;23.116;2023-03-16T10:34:44;95183.94;;;7.50;79.65
7774;BME280;3931;42.260;23.116;2023-03-16T10:37:13;95180.69;;;7.75;78.83
7774;BME280;3931;42.260;23.116;2023-03-16T10:39:39;95181.94;;;7.70;79.28
7774;BME280;3931;42.260;23.116;2023-03-16T10:42:13;95180.44;;;7.50;79.60
7774;BME280;3931;42.260;23.116;2023-03-16T10:44:41;95176.25;;;7.22;80.73
7774;BME280;3931;42.260;23.116;2023-03-16T10:47:16;95183.31;;;7.62;80.09
7774;BME280;3931;42.260;23.116;2023-03-16T10:49:44;95173.00;;;7.66;79.11
7774;BME280;3931;42.260;23.116;2023-03-16T10:52:18;95176.94;;;7.85;78.75
7774;BME280;3931;42.260;23.116;2023-03-16T10:54:49;95174.22;;;8.01;76.92
7774;BME280;3931;42.260;23.116;2023-03-16T10:57:24;95178.31;;;7.93;77.03
7774;BME280;3931;42.260;23.116;2023-03-16T10:59:51;95175.50;;;8.13;75.19
7774;BME280;3931;42.260;23.116;2023-03-16T11:02:20;95172.03;;;7.92;75.62
7774;BME280;3931;42.260;23.116;2023-03-16T11:04:47;95170.84;;;8.45;72.33
7774;BME280;3931;42.260;23.116;2023-03-16T11:07:17;95163.69;;;8.32;73.62
7774;BME280;3931;42.260;23.116;2023-03-16T11:09:44;95174.03;;;8.08;73.65
7774;BME280;3931;42.260;23.116;2023-03-16T11:12:13;95158.38;;;8.05;74.22
7774;BME280;3931;42.260;23.116;2023-03-16T11:14:42;95166.22;;;8.23;74.03
7774;BME280;3931;42.260;23.116;2023-03-16T11:17:11;95166.44;;;8.32;72.18
7774;BME280;3931;42.260;23.116;2023-03-16T11:19:46;95164.25;;;8.23;71.81
7774;BME280;3931;42.260;23.116;2023-03-16T11:22:16;95171.47;;;8.17;71.80
7774;BME280;3931;42.260;23.116;2023-03-16T11:24:47;95162.31;;;8.04;72.57
7774;BME280;3931;42.260;23.116;2023-03-16T11:27:20;95177.66;;;8.05;73.58
7774;BME280;3931;42.260;23.116;2023-03-16T11:30:00;95171.56;;;8.14;73.80
7774;BME280;3931;42.260;23.116;2023-03-16T11:32:32;95165.59;;;7.99;75.03
7774;BME280;3931;42.260;23.116;2023-03-16T11:35:00;95172.66;;;8.00;75.75
7774;BME280;3931;42.260;23.116;2023-03-16T11:37:38;95169.72;;;8.27;74.36
7774;BME280;3931;42.260;23.116;2023-03-16T11:40:16;95173.59;;;7.93;75.46
7774;BME280;3931;42.260;23.116;2023-03-16T11:42:55;95168.06;;;8.29;73.46
7774;BME280;3931;42.260;23.116;2023-03-16T11:45:29;95171.28;;;8.28;73.42
7774;BME280;3931;42.260;23.116;2023-03-16T11:51:01;95170.25;;;7.66;75.35
7774;BME280;3931;42.260;23.116;2023-03-16T11:53:38;95174.28;;;7.62;76.91
7774;BME280;3931;42.260;23.116;2023-03-16T11:56:13;95177.09;;;7.58;75.85
7774;BME280;3931;42.260;23.116;2023-03-16T11:58:56;95175.25;;;7.71;77.26
7774;BME280;3931;42.260;23.116;2023-03-16T12:01:37;95179.44;;;7.95;75.93
7774;BME280;3931;42.260;23.116;2023-03-16T12:04:25;95189.38;;;7.73;76.73
7774;BME280;3931;42.260;23.116;2023-03-16T12:07:15;95186.06;;;7.62;77.47
7774;BME280;3931;42.260;23.116;2023-03-16T12:10:03;95188.63;;;7.89;76.86
7774;BME280;3931;42.260;23.116;2023-03-16T12:12:44;95195.78;;;7.86;77.18
7774;BME280;3931;42.260;23.116;2023-03-16T12:15:24;95188.31;;;7.67;77.54
7774;BME280;3931;42.260;23.116;2023-03-16T12:17:56;95192.03;;;7.77;78.11
7774;BME280;3931;42.260;23.116;2023-03-16T12:20:27;95186.41;;;7.64;76.46
7774;BME280;3931;42.260;23.116;2023-03-16T12:22:59;95197.34;;;7.68;76.39
7774;BME280;3931;42.260;23.116;2023-03-16T12:25:30;95211.19;;;7.64;76.27
7774;BME280;3931;42.260;23.116;2023-03-16T12:27:59;95200.91;;;8.56;75.74
7774;BME280;3931;42.260;23.116;2023-03-16T12:30:36;95198.28;;;8.33;71.49
7774;BME280;3931;42.260;23.116;2023-03-16T12:33:07;95202.72;;;8.30;72.01
7774;BME280;3931;42.260;23.116;2023-03-16T12:35:42;95215.72;;;7.74;72.96
7774;BME280;3931;42.260;23.116;2023-03-16T12:38:35;95213.72;;;8.10;71.38
7774;BME280;3931;42.260;23.116;2023-03-16T12:41:14;95219.44;;;8.71;70.54
7774;BME280;3931;42.260;23.116;2023-03-16T12:43:51;95217.50;;;8.00;71.47
7774;BME280;3931;42.260;23.116;2023-03-16T12:46:27;95223.03;;;8.00;74.14
7774;BME280;3931;42.260;23.116;2023-03-16T12:48:56;95224.38;;;7.33;79.86
7774;BME280;3931;42.260;23.116;2023-03-16T12:51:32;95224.16;;;7.44;80.47
7774;BME280;3931;42.260;23.116;2023-03-16T12:53:58;95217.78;;;7.08;84.52
7774;BME280;3931;42.260;23.116;2023-03-16T12:56:27;95213.50;;;7.07;88.53
7774;BME280;3931;42.260;23.116;2023-03-16T12:58:56;95212.09;;;7.18;87.45
7774;BME280;3931;42.260;23.116;2023-03-16T13:01:28;95226.91;;;7.64;86.11
7774;BME280;3931;42.260;23.116;2023-03-16T13:04:00;95230.41;;;8.23;85.83
7774;BME280;3931;42.260;23.116;2023-03-16T13:06:31;95234.34;;;7.67;83.80
7774;BME280;3931;42.260;23.116;2023-03-16T13:08:59;95217.47;;;7.45;90.23
7774;BME280;3931;42.260;23.116;2023-03-16T13:11:26;95213.72;;;7.35;93.34
7774;BME280;3931;42.260;23.116;2023-03-16T13:14:04;95192.84;;;7.18;98.27
7774;BME280;3931;42.260;23.116;2023-03-16T13:16:35;95199.06;;;7.22;98.18
7774;BME280;3931;42.260;23.116;2023-03-16T13:19:22;95192.75;;;7.22;98.45
7774;BME280;3931;42.260;23.116;2023-03-16T13:21:59;95207.19;;;7.29;97.05
7774;BME280;3931;42.260;23.116;2023-03-16T13:24:33;95207.31;;;7.42;97.41
7774;BME280;3931;42.260;23.116;2023-03-16T13:27:02;95214.56;;;7.52;97.97
7774;BME280;3931;42.260;23.116;2023-03-16T13:29:31;95213.63;;;7.19;97.73
7774;BME280;3931;42.260;23.116;2023-03-16T13:31:59;95219.09;;;7.43;97.33